Caloundra, Australia
Current Conditions -  °F | °C
As of 10:30 AM on Tuesday 23 Dec 2014 (Local Time) from YBBN Reporting Station
Few Clouds Few Clouds  
Wind Chill: 26°   Ceiling: Unl
Heat Index: 27°   Visibility: 6mi
Dew Point: 17°   Wind: 7mph
Humidity: 57%   Direction: 80°E
Pressure: 30"   Gusts: NA
Location:  26.8°S, 153.13°E
Report Text: YBBN 230030Z 08006KT 9999 FEW030 26/17 Q1016
Loading
Personal Weather Stations






























Interactive Weather Map New forecast layout! Learn more

10-Day Weather Forecast

Advertisements
Track Severe Weather on mobile